createdAt,value
2022-10-25T00:00:39.830Z,65.55
2022-10-25T00:03:42.089Z,60.92
2022-10-25T00:06:44.081Z,57.67
2022-10-25T00:09:46.007Z,62.65
2022-10-25T00:12:47.991Z,63.00
2022-10-25T00:15:49.909Z,68.00
2022-10-25T00:18:52.532Z,67.30
2022-10-25T00:21:54.459Z,61.13
2022-10-25T00:24:56.397Z,69.25
2022-10-25T00:27:58.312Z,62.92
2022-10-25T00:31:07.596Z,62.53
2022-10-25T00:34:09.542Z,66.72
2022-10-25T00:37:11.601Z,80.68
2022-10-25T00:40:13.740Z,65.80
2022-10-25T00:43:36.019Z,66.60
2022-10-25T00:46:38.019Z,65.30
2022-10-25T00:49:41.283Z,65.75
2022-10-25T00:52:45.601Z,76.57
2022-10-25T00:55:51.745Z,76.43
2022-10-25T00:58:55.760Z,72.90
2022-10-25T01:01:58.037Z,70.00
2022-10-25T01:05:00.205Z,74.93
2022-10-25T01:08:02.314Z,77.95
2022-10-25T01:11:04.394Z,85.95
2022-10-25T01:14:07.539Z,101.40
2022-10-25T01:17:35.529Z,90.43
2022-10-25T01:20:59.703Z,103.05
2022-10-25T01:24:01.616Z,82.10
2022-10-25T01:27:26.316Z,81.03
2022-10-25T01:30:48.480Z,75.32
2022-10-25T01:34:10.681Z,83.82
2022-10-25T01:37:23.739Z,77.10
2022-10-25T01:40:31.622Z,74.80
2022-10-25T01:43:36.376Z,77.60
2022-10-25T01:46:44.047Z,71.95
2022-10-25T01:49:51.145Z,69.97
2022-10-25T01:56:01.869Z,68.07
2022-10-25T01:59:22.047Z,69.13
2022-10-25T02:02:23.999Z,73.63
2022-10-25T02:05:44.520Z,78.32
2022-10-25T02:08:57.067Z,83.25
2022-10-25T02:11:59.563Z,89.07
2022-10-25T02:15:13.525Z,81.20
2022-10-25T02:18:17.899Z,88.97
2022-10-25T02:21:20.350Z,85.38
2022-10-25T02:24:25.103Z,92.77
2022-10-25T02:27:28.111Z,91.82
2022-10-25T02:30:32.467Z,91.28
2022-10-25T02:33:34.419Z,88.43
2022-10-25T02:36:36.336Z,81.57
2022-10-25T02:39:38.304Z,92.15
2022-10-25T02:42:40.455Z,84.80
2022-10-25T02:45:42.400Z,88.10
2022-10-25T02:48:44.411Z,85.35
2022-10-25T02:51:46.396Z,93.78
2022-10-25T02:54:48.393Z,88.35
2022-10-25T02:57:50.345Z,87.70
2022-10-25T03:00:52.282Z,86.45
2022-10-25T03:03:54.319Z,86.65
2022-10-25T03:06:57.568Z,90.85
2022-10-25T03:09:59.512Z,89.13
2022-10-25T03:13:01.471Z,92.57
2022-10-25T03:16:03.491Z,106.15
2022-10-25T03:19:05.469Z,84.07
2022-10-25T03:22:07.416Z,85.57
2022-10-25T03:28:16.241Z,94.32
2022-10-25T03:31:19.336Z,99.73
2022-10-25T03:34:21.380Z,94.60
2022-10-25T03:37:23.325Z,94.82
2022-10-25T03:40:25.364Z,102.80
2022-10-25T03:43:27.393Z,104.77
2022-10-25T03:46:29.369Z,100.50
2022-10-25T03:49:31.304Z,105.50
2022-10-25T03:52:33.229Z,93.22
2022-10-25T03:55:35.245Z,86.50
2022-10-25T03:58:37.232Z,109.18
2022-10-25T04:01:39.326Z,115.63
2022-10-25T04:04:41.322Z,113.38
2022-10-25T04:07:43.278Z,111.73
2022-10-25T04:10:45.191Z,107.63
2022-10-25T04:13:47.130Z,106.38
2022-10-25T04:16:49.080Z,105.70
2022-10-25T04:19:51.011Z,117.20
2022-10-25T04:22:54.131Z,119.07
2022-10-25T04:25:57.003Z,109.50
2022-10-25T04:28:58.937Z,100.10
2022-10-25T04:32:00.939Z,91.22
2022-10-25T04:35:02.932Z,99.32
2022-10-25T04:38:04.914Z,109.78
2022-10-25T04:41:06.872Z,113.20
2022-10-25T04:44:10.494Z,105.53
2022-10-25T04:47:12.638Z,98.55
2022-10-25T04:50:14.589Z,102.93
2022-10-25T04:53:16.564Z,101.63
2022-10-25T04:56:18.517Z,108.28
2022-10-25T04:59:20.434Z,102.47
2022-10-25T05:02:22.374Z,102.03
2022-10-25T05:05:24.816Z,103.10
2022-10-25T05:08:26.783Z,106.32
2022-10-25T05:11:28.861Z,93.30
2022-10-25T05:14:30.837Z,95.10
2022-10-25T05:17:33.060Z,104.78
2022-10-25T05:20:34.972Z,103.53
2022-10-25T05:23:36.944Z,105.00
2022-10-25T05:26:38.893Z,101.23
2022-10-25T05:29:40.952Z,106.28
2022-10-25T05:32:43.801Z,98.55
2022-10-25T05:35:45.939Z,105.30
2022-10-25T05:38:48.344Z,86.50
2022-10-25T05:41:50.489Z,101.00
2022-10-25T05:44:52.593Z,90.32
2022-10-25T05:47:54.674Z,82.13
2022-10-25T05:51:20.935Z,80.15
2022-10-25T05:54:30.449Z,80.50
2022-10-25T05:57:32.480Z,80.57
2022-10-25T06:00:34.610Z,73.80
2022-10-25T06:03:36.777Z,67.73
2022-10-25T06:06:40.076Z,72.07
2022-10-25T06:09:42.116Z,76.07
2022-10-25T06:12:44.270Z,70.88
2022-10-25T06:15:46.766Z,64.27
2022-10-25T06:18:48.781Z,58.80
2022-10-25T06:21:50.819Z,60.50
2022-10-25T06:24:52.757Z,51.35
2022-10-25T06:27:54.800Z,50.60
2022-10-25T06:31:10.248Z,47.85
2022-10-25T06:34:12.359Z,39.90
2022-10-25T06:37:15.517Z,42.35
2022-10-25T06:40:17.612Z,41.50
2022-10-25T06:43:19.670Z,40.92
2022-10-25T06:46:21.795Z,38.10
2022-10-25T06:49:24.186Z,38.83
2022-10-25T06:52:27.897Z,36.30
2022-10-25T06:55:29.918Z,35.22
2022-10-25T06:58:32.761Z,33.50
2022-10-25T07:01:34.925Z,38.00
2022-10-25T07:04:37.009Z,33.30
2022-10-25T07:07:39.069Z,39.47
2022-10-25T07:10:41.080Z,37.38
2022-10-25T07:13:43.297Z,31.63
2022-10-25T07:16:45.299Z,28.47
2022-10-25T07:19:47.277Z,30.15
2022-10-25T07:22:50.264Z,31.63
2022-10-25T07:25:52.246Z,25.63
2022-10-25T07:28:55.611Z,27.60
2022-10-25T07:31:57.616Z,33.40
2022-10-25T07:34:59.579Z,47.65
2022-10-25T07:38:01.635Z,22.70
2022-10-25T07:41:03.973Z,18.95
2022-10-25T07:44:09.559Z,17.27
2022-10-25T07:47:13.882Z,18.20
2022-10-25T07:50:15.877Z,17.25
2022-10-25T07:53:18.512Z,20.55
2022-10-25T07:56:23.414Z,20.95
2022-10-25T07:59:26.145Z,22.02
2022-10-25T08:02:28.293Z,21.17
2022-10-25T08:05:30.294Z,24.75
2022-10-25T08:08:32.317Z,24.10
2022-10-25T08:11:34.584Z,19.40
2022-10-25T08:14:39.973Z,24.13
2022-10-25T08:17:43.704Z,23.37
2022-10-25T08:21:02.748Z,22.58
2022-10-25T08:24:05.860Z,22.05
2022-10-25T08:27:07.959Z,21.30
2022-10-25T08:30:10.148Z,24.95
2022-10-25T08:33:12.367Z,20.43
2022-10-25T08:36:14.520Z,24.80
2022-10-25T08:39:17.737Z,20.00
2022-10-25T08:42:24.681Z,28.55
2022-10-25T08:45:32.420Z,22.50
2022-10-25T08:48:37.498Z,22.83
2022-10-25T08:51:42.010Z,31.02
2022-10-25T08:54:44.759Z,20.70
2022-10-25T08:57:48.886Z,19.50
2022-10-25T09:00:51.130Z,18.88
2022-10-25T09:03:53.179Z,16.83
2022-10-25T09:07:15.467Z,16.42
2022-10-25T09:10:36.369Z,20.85
2022-10-25T09:13:38.457Z,23.55
2022-10-25T09:16:40.407Z,22.13
2022-10-25T09:20:02.736Z,17.47
2022-10-25T09:23:08.845Z,18.10
2022-10-25T09:26:20.942Z,18.27
2022-10-25T09:29:32.442Z,19.95
2022-10-25T09:32:34.467Z,19.70
2022-10-25T09:35:45.417Z,18.00
2022-10-25T09:38:49.427Z,16.55
2022-10-25T09:41:54.575Z,19.77
2022-10-25T09:44:59.762Z,17.70
2022-10-25T09:48:07.631Z,18.55
2022-10-25T09:51:22.300Z,16.33
2022-10-25T09:54:27.979Z,17.80
2022-10-25T09:57:30.079Z,15.80
2022-10-25T10:00:33.499Z,15.52
2022-10-25T10:03:36.142Z,14.85
2022-10-25T10:06:39.111Z,18.50
2022-10-25T10:09:45.763Z,13.35
2022-10-25T10:16:04.651Z,13.52
2022-10-25T10:19:21.043Z,11.65
2022-10-25T10:22:23.145Z,12.40
2022-10-25T10:25:26.292Z,16.05
2022-10-25T10:28:28.490Z,12.63
2022-10-25T10:31:37.636Z,11.00
2022-10-25T10:34:42.649Z,10.77
2022-10-25T10:37:44.957Z,12.30
2022-10-25T10:40:50.746Z,14.90
2022-10-25T10:44:12.960Z,14.38
2022-10-25T10:47:20.389Z,15.05
2022-10-25T10:50:25.923Z,19.10
2022-10-25T10:53:29.896Z,15.70
2022-10-25T10:56:33.427Z,18.73
2022-10-25T10:59:55.328Z,20.63
2022-10-25T11:02:57.436Z,15.18
2022-10-25T11:06:00.071Z,14.63
2022-10-25T11:09:16.177Z,14.87
2022-10-25T11:12:22.271Z,16.15
2022-10-25T11:15:24.635Z,15.55
2022-10-25T11:18:38.868Z,14.73
2022-10-25T11:21:59.516Z,15.48
2022-10-25T11:25:07.361Z,16.97
2022-10-25T11:28:16.119Z,17.33
2022-10-25T11:31:18.077Z,17.42
2022-10-25T11:34:20.060Z,18.23
2022-10-25T11:37:33.982Z,20.30
2022-10-25T11:40:46.252Z,29.33
2022-10-25T11:44:06.806Z,19.02
2022-10-25T11:47:14.523Z,14.88
2022-10-25T11:50:16.578Z,14.63
2022-10-25T11:53:33.830Z,13.55
2022-10-25T11:56:35.762Z,14.50
2022-10-25T11:59:46.587Z,14.95
2022-10-25T12:03:03.671Z,13.55
2022-10-25T12:06:14.761Z,18.52
2022-10-25T12:09:29.111Z,15.95
2022-10-25T12:12:43.029Z,14.17
2022-10-25T12:15:57.904Z,14.82
2022-10-25T12:19:23.142Z,17.50
2022-10-25T12:22:36.832Z,16.73
2022-10-25T12:25:46.438Z,12.10
2022-10-25T12:28:49.542Z,11.43
2022-10-25T12:31:58.945Z,9.68
2022-10-25T12:35:02.999Z,9.27
2022-10-25T12:38:15.462Z,9.75
2022-10-25T12:41:23.650Z,14.98
2022-10-25T12:44:31.337Z,16.77
2022-10-25T12:47:39.135Z,15.60
2022-10-25T12:50:44.080Z,14.02
2022-10-25T12:53:52.133Z,11.15
2022-10-25T12:56:55.104Z,15.45
2022-10-25T13:00:03.713Z,10.67
2022-10-25T13:03:31.919Z,17.60
2022-10-25T13:06:38.231Z,11.05
2022-10-25T13:09:40.602Z,8.57
2022-10-25T13:12:43.506Z,10.57
2022-10-25T13:15:50.333Z,10.77
2022-10-25T13:19:10.823Z,8.88
2022-10-25T13:22:12.751Z,9.18
2022-10-25T13:25:38.118Z,46.00
2022-10-25T13:28:59.980Z,14.63
2022-10-25T13:32:10.236Z,7.77
2022-10-25T13:35:17.396Z,8.82
2022-10-25T13:38:23.178Z,8.98
2022-10-25T13:41:25.196Z,12.70
2022-10-25T13:44:27.534Z,7.95
2022-10-25T13:47:35.928Z,41.93
2022-10-25T13:51:04.182Z,13.32
2022-10-25T13:54:11.960Z,18.23
2022-10-25T13:57:32.838Z,7.07
2022-10-25T14:00:34.925Z,6.90
2022-10-25T14:03:55.455Z,7.70
2022-10-25T14:07:17.350Z,6.57
2022-10-25T14:10:21.501Z,8.73
2022-10-25T14:13:30.500Z,7.40
2022-10-25T14:16:33.701Z,4.07
2022-10-25T14:19:43.852Z,7.40
2022-10-25T14:22:53.333Z,7.93
2022-10-25T14:25:56.607Z,5.18
2022-10-25T14:29:14.796Z,4.47
2022-10-25T14:32:20.680Z,8.13
2022-10-25T14:35:23.445Z,5.53
2022-10-25T14:38:28.520Z,7.75
2022-10-25T14:41:32.589Z,6.80
2022-10-25T14:44:45.516Z,5.70
2022-10-25T14:47:47.822Z,5.40
2022-10-25T14:50:50.084Z,5.63
2022-10-25T14:53:53.953Z,8.02
2022-10-25T14:57:06.427Z,5.78
2022-10-25T15:00:16.980Z,7.40
2022-10-25T15:03:18.988Z,5.03
2022-10-25T15:06:22.487Z,8.97
2022-10-25T15:12:50.975Z,10.40
2022-10-25T15:15:53.103Z,14.55
2022-10-25T15:19:04.121Z,13.10
2022-10-25T15:22:07.738Z,8.87
2022-10-25T15:25:18.830Z,11.25
2022-10-25T15:28:21.156Z,11.23
2022-10-25T15:31:24.926Z,7.88
2022-10-25T15:34:26.960Z,6.32
2022-10-25T15:37:29.547Z,9.60
2022-10-25T15:40:31.523Z,7.93
2022-10-25T15:43:33.433Z,9.50
2022-10-25T15:46:35.524Z,11.48
2022-10-25T15:49:37.474Z,11.32
2022-10-25T15:52:39.385Z,11.97
2022-10-25T15:55:42.185Z,14.55
2022-10-25T15:58:44.136Z,12.15
2022-10-25T16:01:47.678Z,12.88
2022-10-25T16:04:49.791Z,11.82
2022-10-25T16:07:51.876Z,11.77
2022-10-25T16:10:54.397Z,11.80
2022-10-25T16:13:56.411Z,9.88
2022-10-25T16:17:01.908Z,14.88
2022-10-25T16:20:05.772Z,14.25
2022-10-25T16:23:07.735Z,13.53
2022-10-25T16:26:14.384Z,14.13
2022-10-25T16:29:17.520Z,16.02
2022-10-25T16:32:20.337Z,12.88
2022-10-25T16:35:24.326Z,10.80
2022-10-25T16:38:26.276Z,13.10
2022-10-25T16:41:29.452Z,14.18
2022-10-25T16:44:31.763Z,13.88
2022-10-25T16:47:33.781Z,14.93
2022-10-25T16:50:35.808Z,12.25
2022-10-25T16:53:37.720Z,9.17
2022-10-25T16:56:39.761Z,7.93
2022-10-25T16:59:42.009Z,11.35
2022-10-25T17:02:43.968Z,11.80
2022-10-25T17:05:45.969Z,12.55
2022-10-25T17:08:48.223Z,9.70
2022-10-25T17:11:50.259Z,13.30
2022-10-25T17:14:52.190Z,20.90
2022-10-25T17:17:54.625Z,16.27
2022-10-25T17:20:56.585Z,12.20
2022-10-25T17:23:58.703Z,12.57
2022-10-25T17:27:00.746Z,10.02
2022-10-25T17:30:02.737Z,12.10
2022-10-25T17:33:04.653Z,11.40
2022-10-25T17:36:07.850Z,10.07
2022-10-25T17:39:10.418Z,13.33
2022-10-25T17:42:12.437Z,14.93
2022-10-25T17:45:14.414Z,20.50
2022-10-25T17:48:16.327Z,22.98
2022-10-25T17:51:18.276Z,21.30
2022-10-25T17:54:20.251Z,19.37
2022-10-25T17:57:22.217Z,17.77
2022-10-25T18:00:24.197Z,17.95
2022-10-25T18:03:26.129Z,15.63
2022-10-25T18:06:28.126Z,19.00
2022-10-25T18:09:30.027Z,22.50
2022-10-25T18:12:32.129Z,19.50
2022-10-25T18:15:35.760Z,15.27
2022-10-25T18:18:38.200Z,14.20
2022-10-25T18:21:40.719Z,13.20
2022-10-25T18:24:42.620Z,11.30
2022-10-25T18:27:44.569Z,18.50
2022-10-25T18:30:46.517Z,18.33
2022-10-25T18:33:48.596Z,21.30
2022-10-25T18:36:50.511Z,19.43
2022-10-25T18:39:54.407Z,14.95
2022-10-25T18:42:56.335Z,16.00
2022-10-25T18:45:58.987Z,16.77
2022-10-25T18:49:00.984Z,15.27
2022-10-25T18:52:03.172Z,15.20
2022-10-25T18:55:05.343Z,14.55
2022-10-25T18:58:07.325Z,12.73
2022-10-25T19:01:10.501Z,13.13
2022-10-25T19:04:12.465Z,18.42
2022-10-25T19:07:14.411Z,17.05
2022-10-25T19:10:16.380Z,14.38
2022-10-25T19:13:21.012Z,14.70
2022-10-25T19:16:23.724Z,16.00
2022-10-25T19:19:25.693Z,14.32
2022-10-25T19:22:28.078Z,18.85
2022-10-25T19:25:30.220Z,19.83
2022-10-25T19:28:32.728Z,16.98
2022-10-25T19:31:34.661Z,16.80
2022-10-25T19:34:36.657Z,20.35
2022-10-25T19:37:39.548Z,21.13
2022-10-25T19:40:44.205Z,20.15
2022-10-25T19:43:46.712Z,22.23
2022-10-25T19:46:51.724Z,18.00
2022-10-25T19:49:53.769Z,20.58
2022-10-25T19:52:55.776Z,15.38
2022-10-25T19:55:58.517Z,15.23
2022-10-25T19:59:00.538Z,15.37
2022-10-25T20:02:02.885Z,11.20
2022-10-25T20:05:05.150Z,11.20
2022-10-25T20:08:07.111Z,12.07
2022-10-25T20:11:10.436Z,17.90
2022-10-25T20:14:12.420Z,10.43
2022-10-25T20:17:14.363Z,12.90
2022-10-25T20:20:16.277Z,12.73
2022-10-25T20:23:18.193Z,10.13
2022-10-25T20:26:21.194Z,10.90
2022-10-25T20:29:24.123Z,15.90
2022-10-25T20:32:26.046Z,11.07
2022-10-25T20:35:28.132Z,13.80
2022-10-25T20:38:30.716Z,11.57
2022-10-25T20:41:34.265Z,11.52
2022-10-25T20:44:36.192Z,13.63
2022-10-25T20:47:38.117Z,13.77
2022-10-25T20:50:45.985Z,11.18
2022-10-25T20:53:48.867Z,11.25
2022-10-25T20:56:50.815Z,13.30
2022-10-25T20:59:52.748Z,15.10
2022-10-25T21:02:54.667Z,12.05
2022-10-25T21:05:57.624Z,11.93
2022-10-25T21:08:59.587Z,10.75
2022-10-25T21:12:01.534Z,12.07
2022-10-25T21:15:05.853Z,11.02
2022-10-25T21:18:10.898Z,15.07
2022-10-25T21:21:19.931Z,11.88
2022-10-25T21:24:21.985Z,10.70
2022-10-25T21:27:23.955Z,11.00
2022-10-25T21:30:25.885Z,10.32
2022-10-25T21:33:27.826Z,10.63
2022-10-25T21:36:29.972Z,10.53
2022-10-25T21:39:31.924Z,10.47
2022-10-25T21:42:34.177Z,14.90
2022-10-25T21:45:39.923Z,14.70
2022-10-25T21:48:42.086Z,10.90
2022-10-25T21:51:44.047Z,10.30
2022-10-25T21:54:45.956Z,10.80
2022-10-25T21:57:50.599Z,13.52
2022-10-25T22:00:56.042Z,13.70
2022-10-25T22:03:58.236Z,14.50
2022-10-25T22:07:00.148Z,11.77
2022-10-25T22:10:02.080Z,10.68
2022-10-25T22:13:04.145Z,12.23
2022-10-25T22:16:10.815Z,13.48
2022-10-25T22:19:14.530Z,11.75
2022-10-25T22:22:16.583Z,11.23
2022-10-25T22:25:18.519Z,11.33
2022-10-25T22:28:20.492Z,11.05
2022-10-25T22:31:22.478Z,12.73
2022-10-25T22:34:24.540Z,11.50
2022-10-25T22:37:26.484Z,19.13
2022-10-25T22:40:28.577Z,13.70
2022-10-25T22:43:30.555Z,11.65
2022-10-25T22:46:33.472Z,14.07
2022-10-25T22:49:35.414Z,11.57
2022-10-25T22:52:37.364Z,15.48
2022-10-25T22:55:39.302Z,12.82
2022-10-25T22:58:42.114Z,13.13
2022-10-25T23:01:44.048Z,13.33
2022-10-25T23:04:45.996Z,13.27
2022-10-25T23:07:47.924Z,11.98
2022-10-25T23:10:49.828Z,15.13
2022-10-25T23:13:51.861Z,11.57
2022-10-25T23:16:53.772Z,12.93
2022-10-25T23:19:55.733Z,11.82
2022-10-25T23:22:57.653Z,12.87
2022-10-25T23:26:00.623Z,16.35
2022-10-25T23:29:03.042Z,14.95
2022-10-25T23:32:04.995Z,13.73
2022-10-25T23:35:07.144Z,14.43
2022-10-25T23:38:12.852Z,14.40
2022-10-25T23:41:15.080Z,12.60
2022-10-25T23:44:17.014Z,15.20
2022-10-25T23:47:18.917Z,14.23
2022-10-25T23:50:20.936Z,13.93
2022-10-25T23:53:22.891Z,16.17
2022-10-25T23:56:24.850Z,17.90
2022-10-25T23:59:26.768Z,13.27
